Time;durP1;ratioP1;P1;durP2;ratioP2;P2;SDS_P1;SDS_P2;PMS_P1;PMS_P2;Temp;Humidity;BMP_temperature;BMP_pressure;BME280_temperature;BME280_humidity;BME280_pressure;Samples;Min_cycle;Max_cycle;Signal;HPM_P1;HPM_P2
2022/05/08 00:00:36;;;;;;;0.73;0.73;;;;;;;;;;5040475;28;20446;-67
2022/05/08 00:03:02;;;;;;;0.70;0.70;;;;;;;;;;5040491;28;20423;-67
2022/05/08 00:05:28;;;;;;;0.57;0.57;;;22.70;55.30;;;;;;5040216;28;20434;-67
2022/05/08 00:07:54;;;;;;;0.83;0.83;;;;;;;;;;5040058;28;20467;-67
2022/05/08 00:10:20;;;;;;;0.90;0.60;;;;;;;;;;5039967;28;21090;-67
2022/05/08 00:12:46;;;;;;;0.82;0.82;;;;;;;;;;5039488;28;21049;-67
2022/05/08 00:15:12;;;;;;;0.67;0.67;;;;;;;;;;5039401;28;20190;-67
2022/05/08 00:17:38;;;;;;;0.77;0.77;;;;;;;;;;5039156;28;20417;-67
2022/05/08 00:20:06;;;;;;;0.80;0.80;;;22.70;56.00;;;;;;5038998;28;20775;-67
2022/05/08 00:22:32;;;;;;;1.27;0.70;;;;;;;;;;5039558;28;20571;-67
2022/05/08 00:25:00;;;;;;;0.80;0.80;;;22.00;55.50;;;;;;5039525;28;20422;-67
2022/05/08 00:27:26;;;;;;;0.80;0.63;;;;;;;;;;5039138;28;20454;-67
2022/05/08 00:29:52;;;;;;;1.47;0.53;;;;;;;;;;5038910;28;20588;-67
2022/05/08 00:32:18;;;;;;;0.50;0.50;;;;;;;;;;5039672;28;20533;-67
2022/05/08 00:34:44;;;;;;;0.50;0.50;;;;;;;;;;5039883;28;20175;-67
2022/05/08 00:37:10;;;;;;;0.70;0.70;;;;;;;;;;5039260;28;20521;-67
2022/05/08 00:39:36;;;;;;;0.50;0.50;;;22.80;59.40;;;;;;5038953;28;20870;-67
2022/05/08 00:42:02;;;;;;;0.80;0.60;;;22.30;61.70;;;;;;5038940;28;20176;-67
2022/05/08 00:44:28;;;;;;;0.50;0.50;;;;;;;;;;5039119;28;20222;-67
2022/05/08 00:46:54;;;;;;;0.93;0.93;;;;;;;;;;5038794;28;20461;-67
2022/05/08 00:49:20;;;;;;;0.80;0.60;;;;;;;;;;5038702;28;20298;-67
2022/05/08 00:51:48;;;;;;;0.83;0.83;;;22.60;55.20;;;;;;5038471;28;20432;-67
2022/05/08 00:54:15;;;;;;;1.10;1.00;;;21.10;54.20;;;;;;5038924;28;20906;-67
2022/05/08 00:56:41;;;;;;;0.77;0.77;;;22.70;63.80;;;;;;5039002;28;20760;-67
2022/05/08 00:59:07;;;;;;;0.70;0.52;;;;;;;;;;5038634;28;20465;-67
2022/05/08 01:01:33;;;;;;;0.97;0.80;;;;;;;;;;5039218;28;20168;-67
2022/05/08 01:03:59;;;;;;;0.50;0.50;;;;;;;;;;5039084;28;20798;-67
2022/05/08 01:06:27;;;;;;;1.03;1.03;;;22.20;55.70;;;;;;5038567;28;20436;-67
2022/05/08 01:08:54;;;;;;;0.60;0.60;;;;;;;;;;5038846;28;20438;-67
2022/05/08 01:11:21;;;;;;;0.70;0.70;;;;;;;;;;5038997;28;20497;-67
2022/05/08 01:13:47;;;;;;;0.77;0.77;;;22.70;55.20;;;;;;5038385;28;20462;-67
2022/05/08 01:16:15;;;;;;;0.53;0.53;;;22.60;63.10;;;;;;5037355;28;20500;-67
2022/05/08 01:18:42;;;;;;;1.50;0.80;;;22.60;61.30;;;;;;5038101;28;20545;-67
2022/05/08 01:21:10;;;;;;;0.50;0.50;;;22.60;55.80;;;;;;5038527;28;20257;-67
2022/05/08 01:23:37;;;;;;;0.93;0.93;;;23.90;56.40;;;;;;5038577;28;20209;-67
2022/05/08 01:26:03;;;;;;;0.97;0.70;;;;;;;;;;5018536;28;20772;-67
2022/05/08 01:28:29;;;;;;;1.00;0.90;;;;;;;;;;5018224;28;20701;-67
2022/05/08 01:30:55;;;;;;;0.70;0.70;;;;;;;;;;5017917;28;20549;-67
2022/05/08 01:33:22;;;;;;;4.80;0.60;;;22.60;55.50;;;;;;5032074;28;20470;-67
2022/05/08 01:35:49;;;;;;;1.20;1.10;;;;;;;;;;5038060;28;20233;-67
2022/05/08 01:38:17;;;;;;;0.63;0.63;;;22.90;55.80;;;;;;5038275;28;20415;-67
2022/05/08 01:40:43;;;;;;;0.90;0.90;;;;;;;;;;5037835;28;20426;-67
2022/05/08 01:43:10;;;;;;;0.87;0.70;;;;;;;;;;5035668;28;20438;-67
2022/05/08 01:45:36;;;;;;;0.80;0.80;;;;;;;;;;5037527;28;20739;-67
2022/05/08 01:50:47;;;;;;;0.70;0.60;;;;;;;;;;5038025;28;20464;-67
2022/05/08 01:53:13;;;;;;;1.37;0.70;;;;;;;;;;5038120;28;20852;-67
2022/05/08 01:55:39;;;;;;;0.70;0.70;;;;;;;;;;5038237;28;20751;-67
2022/05/08 01:58:05;;;;;;;0.70;0.70;;;;;;;;;;5038242;28;20233;-67
2022/05/08 02:00:32;;;;;;;0.80;0.80;;;;;;;;;;5038003;28;20450;-67
2022/05/08 02:03:00;;;;;;;0.90;0.90;;;22.60;62.90;;;;;;5038100;28;20365;-67
2022/05/08 02:05:28;;;;;;;0.70;0.65;;;22.80;56.30;;;;;;5038206;28;20415;-67
2022/05/08 02:07:54;;;;;;;0.80;0.80;;;23.60;55.80;;;;;;5036182;28;20269;-67
2022/05/08 02:10:21;;;;;;;0.60;0.60;;;;;;;;;;5037818;28;20442;-67
2022/05/08 02:12:47;;;;;;;0.60;0.60;;;;;;;;;;5037758;28;20760;-67
2022/05/08 02:15:14;;;;;;;0.60;0.60;;;22.60;54.60;;;;;;5038247;28;20428;-67
2022/05/08 02:17:40;;;;;;;0.57;0.57;;;;;;;;;;5037751;28;20457;-67
2022/05/08 02:20:07;;;;;;;0.60;0.60;;;22.60;55.70;;;;;;5038020;28;20990;-67
2022/05/08 02:22:34;;;;;;;0.77;0.77;;;22.60;55.30;;;;;;5037315;28;21367;-67
2022/05/08 02:25:00;;;;;;;0.77;0.77;;;;;;;;;;5037879;28;20890;-67
2022/05/08 02:27:26;;;;;;;0.70;0.70;;;;;;;;;;5037561;28;20418;-67
2022/05/08 02:29:52;;;;;;;0.70;0.60;;;;;;;;;;5037570;28;20578;-67
2022/05/08 02:32:18;;;;;;;1.30;0.75;;;23.00;55.00;;;;;;5037443;28;20880;-67
2022/05/08 02:34:44;;;;;;;0.90;0.90;;;;;;;;;;5037642;28;20426;-67
2022/05/08 02:37:10;;;;;;;0.57;0.57;;;;;;;;;;5037322;28;20835;-67
2022/05/08 02:39:36;;;;;;;1.00;1.00;;;;;;;;;;5037541;28;20441;-67
2022/05/08 02:42:02;;;;;;;1.03;0.73;;;;;;;;;;5038624;28;20428;-67
2022/05/08 02:44:28;;;;;;;0.80;0.80;;;;;;;;;;5041550;28;20505;-67
2022/05/08 02:46:54;;;;;;;3.23;0.83;;;;;;;;;;5041035;28;20429;-67
2022/05/08 02:49:20;;;;;;;1.03;0.70;;;;;;;;;;5041259;28;20438;-67
2022/05/08 02:51:46;;;;;;;0.63;0.63;;;;;;;;;;5040864;28;20298;-67
2022/05/08 02:54:12;;;;;;;1.20;0.90;;;;;;;;;;5041267;28;20489;-67
2022/05/08 02:59:23;;;;;;;0.63;0.63;;;;;;;;;;5041239;28;20436;-67
2022/05/08 03:01:49;;;;;;;0.90;0.90;;;;;;;;;;5041284;28;20188;-67
2022/05/08 03:04:15;;;;;;;1.30;0.87;;;;;;;;;;5041392;28;20186;-67
2022/05/08 03:06:40;;;;;;;0.70;0.70;;;;;;;;;;5040951;28;20325;-67
2022/05/08 03:09:06;;;;;;;0.60;0.60;;;;;;;;;;5041069;28;20896;-67
2022/05/08 03:11:33;;;;;;;0.73;0.73;;;;;;;;;;5040867;28;20855;-67
2022/05/08 03:13:59;;;;;;;0.60;0.60;;;22.50;55.20;;;;;;5041089;28;20917;-67
2022/05/08 03:16:27;;;;;;;0.70;0.70;;;;;;;;;;5040646;28;20407;-67
2022/05/08 03:18:53;;;;;;;0.63;0.63;;;;;;;;;;5040646;28;20946;-67
2022/05/08 03:21:19;;;;;;;0.60;0.60;;;;;;;;;;5040587;28;21029;-67
2022/05/08 03:23:46;;;;;;;0.85;0.77;;;22.50;54.60;;;;;;5040510;28;20411;-67
2022/05/08 03:26:14;;;;;;;0.67;0.67;;;22.60;54.80;;;;;;5040437;28;20176;-67
2022/05/08 03:28:40;;;;;;;1.53;1.07;;;;;;;;;;5040603;28;20495;-67
2022/05/08 03:31:06;;;;;;;0.60;0.57;;;22.70;55.10;;;;;;5040697;28;20824;-67
2022/05/08 03:33:33;;;;;;;1.23;1.13;;;22.70;55.70;;;;;;5040035;28;20523;-67
2022/05/08 03:35:59;;;;;;;0.70;0.70;;;;;;;;;;5040169;28;20500;-67
2022/05/08 03:38:27;;;;;;;0.63;0.63;;;;;;;;;;5040313;28;20422;-67
2022/05/08 03:40:53;;;;;;;0.67;0.67;;;;;;;;;;5040514;28;20973;-67
2022/05/08 03:43:19;;;;;;;0.77;0.77;;;;;;;;;;5040084;28;20546;-67
2022/05/08 03:45:48;;;;;;;1.37;0.90;;;;;;;;;;5040247;28;21189;-67
2022/05/08 03:48:14;;;;;;;0.80;0.80;;;;;;;;;;5040580;28;20414;-67
2022/05/08 03:50:40;;;;;;;0.50;0.50;;;;;;;;;;5039832;28;20469;-67
2022/05/08 03:53:06;;;;;;;0.60;0.60;;;;;;;;;;5040193;28;21104;-67
2022/05/08 03:55:32;;;;;;;0.80;0.80;;;;;;;;;;5040100;28;20492;-67
2022/05/08 03:57:58;;;;;;;0.93;0.70;;;;;;;;;;5040273;28;20825;-67
2022/05/08 04:00:24;;;;;;;0.60;0.60;;;;;;;;;;5039994;28;21090;-67
2022/05/08 04:02:50;;;;;;;0.80;0.57;;;;;;;;;;5039812;28;20532;-67
2022/05/08 04:05:16;;;;;;;1.10;1.00;;;;;;;;;;5039865;28;20380;-67
2022/05/08 04:07:42;;;;;;;0.60;0.60;;;;;;;;;;5039598;28;20430;-67
2022/05/08 04:10:08;;;;;;;0.60;0.60;;;;;;;;;;5039631;28;20446;-67
2022/05/08 04:12:35;;;;;;;0.80;0.80;;;;;;;;;;5039851;28;20415;-67
2022/05/08 04:15:01;;;;;;;0.80;0.80;;;;;;;;;;5040048;28;20505;-67
2022/05/08 04:17:28;;;;;;;0.80;0.80;;;;;;;;;;5039554;28;20422;-67
2022/05/08 04:19:55;;;;;;;0.60;0.50;;;22.60;55.50;;;;;;5039226;28;20595;-67
2022/05/08 04:25:10;;;;;;;1.00;1.00;;;22.80;55.30;;;;;;5039388;28;20414;-67
2022/05/08 04:27:37;;;;;;;1.33;0.60;;;;;;;;;;5038956;28;21036;-67
2022/05/08 04:30:03;;;;;;;1.10;1.00;;;22.50;55.60;;;;;;5039466;28;20426;-67
2022/05/08 04:32:29;;;;;;;1.23;1.03;;;;;;;;;;5039094;28;20479;-67
2022/05/08 04:34:55;;;;;;;0.70;0.70;;;;;;;;;;5039411;28;20414;-67
2022/05/08 04:37:21;;;;;;;0.70;0.70;;;;;;;;;;5039178;28;20545;-67
2022/05/08 04:39:47;;;;;;;0.70;0.67;;;;;;;;;;5039165;28;20199;-67
2022/05/08 04:42:13;;;;;;;0.97;0.97;;;;;;;;;;5039221;28;21238;-67
2022/05/08 04:44:39;;;;;;;0.70;0.70;;;;;;;;;;5039100;28;20532;-67
2022/05/08 04:47:05;;;;;;;0.80;0.70;;;;;;;;;;5039016;28;20475;-67
2022/05/08 04:49:31;;;;;;;1.27;0.70;;;;;;;;;;5036824;28;20283;-67
2022/05/08 04:51:57;;;;;;;0.70;0.70;;;;;;;;;;5038619;28;20433;-67
2022/05/08 04:54:24;;;;;;;0.77;0.77;;;;;;;;;;5038666;28;20904;-67
2022/05/08 04:56:51;;;;;;;0.70;0.70;;;;;;;;;;5038341;28;20794;-67
2022/05/08 04:59:17;;;;;;;1.03;0.90;;;;;;;;;;5039043;28;20430;-67
2022/05/08 05:01:43;;;;;;;1.00;0.60;;;;;;;;;;5038109;28;20430;-67
2022/05/08 05:04:09;;;;;;;2.13;0.97;;;;;;;;;;5038548;28;20414;-67
2022/05/08 05:06:35;;;;;;;0.83;0.60;;;;;;;;;;5038195;28;20422;-67
2022/05/08 05:09:01;;;;;;;1.13;0.70;;;;;;;;;;5038275;28;20709;-67
2022/05/08 05:11:27;;;;;;;0.87;0.77;;;;;;;;;;5038355;28;20618;-67
2022/05/08 05:13:53;;;;;;;0.60;0.60;;;;;;;;;;5038213;28;20942;-67
2022/05/08 05:16:19;;;;;;;0.63;0.63;;;;;;;;;;5037884;28;20207;-67
2022/05/08 05:18:45;;;;;;;0.90;0.90;;;;;;;;;;5037861;28;20215;-67
2022/05/08 05:21:11;;;;;;;0.63;0.53;;;;;;;;;;5038084;28;20604;-67
2022/05/08 05:23:37;;;;;;;0.53;0.53;;;;;;;;;;5038302;28;20415;-67
2022/05/08 05:26:03;;;;;;;0.70;0.70;;;;;;;;;;5037649;28;20430;-67
2022/05/08 05:28:30;;;;;;;0.60;0.60;;;;;;;;;;5038289;28;20290;-67
2022/05/08 05:30:56;;;;;;;0.90;0.90;;;;;;;;;;5037849;28;20406;-67
2022/05/08 05:33:22;;;;;;;0.80;0.60;;;;;;;;;;5037748;28;20301;-67
2022/05/08 05:35:48;;;;;;;2.20;0.73;;;;;;;;;;5037337;28;20291;-67
2022/05/08 05:38:14;;;;;;;0.87;0.80;;;;;;;;;;5038217;28;20412;-67
2022/05/08 05:40:40;;;;;;;0.90;0.90;;;;;;;;;;5037684;28;20509;-67
2022/05/08 05:43:06;;;;;;;1.10;0.70;;;;;;;;;;5037842;28;20176;-67
2022/05/08 05:45:32;;;;;;;0.70;0.70;;;;;;;;;;5037747;28;20557;-67
2022/05/08 05:48:00;;;;;;;1.13;0.60;;;;;;;;;;5037798;28;20484;-67
2022/05/08 05:50:26;;;;;;;0.60;0.60;;;;;;;;;;5037614;28;20500;-67
2022/05/08 05:52:53;;;;;;;1.03;0.70;;;22.50;54.90;;;;;;5037527;28;20199;-67
2022/05/08 05:55:19;;;;;;;0.50;0.50;;;;;;;;;;5037306;28;20422;-67
2022/05/08 05:57:45;;;;;;;0.53;0.53;;;;;;;;;;5037605;28;20433;-67
2022/05/08 06:00:13;;;;;;;1.63;0.70;;;22.50;55.50;;;;;;5037388;28;20431;-67
2022/05/08 06:02:40;;;;;;;0.57;0.57;;;22.90;62.70;;;;;;5037267;28;20419;-67
2022/05/08 06:05:07;;;;;;;0.60;0.60;;;22.40;63.00;;;;;;5037919;28;20675;-67
2022/05/08 06:07:34;;;;;;;1.08;0.98;;;22.20;55.20;;;;;;5037198;28;20187;-67
2022/05/08 06:10:00;;;;;;;0.63;0.63;;;;;;;;;;5037685;28;20203;-67
2022/05/08 06:12:26;;;;;;;0.60;0.60;;;;;;;;;;5037186;28;20781;-67
2022/05/08 06:14:52;;;;;;;0.80;0.70;;;;;;;;;;5037000;28;20432;-67
2022/05/08 06:17:18;;;;;;;0.70;0.70;;;;;;;;;;5038959;28;20426;-67
2022/05/08 06:19:45;;;;;;;0.60;0.60;;;;;;;;;;5041426;28;20536;-67
2022/05/08 06:22:11;;;;;;;0.70;0.70;;;;;;;;;;5041460;28;20677;-67
2022/05/08 06:24:38;;;;;;;0.50;0.50;;;;;;;;;;5041493;28;20970;-67
2022/05/08 06:27:05;;;;;;;0.70;0.70;;;;;;;;;;5041074;28;20864;-67
2022/05/08 06:29:31;;;;;;;1.00;1.00;;;;;;;;;;5041354;28;20457;-67
2022/05/08 06:31:57;;;;;;;0.60;0.60;;;;;;;;;;5039787;28;20421;-67
2022/05/08 06:34:23;;;;;;;5.17;1.20;;;;;;;;;;5041025;28;20469;-67
2022/05/08 06:36:49;;;;;;;1.20;0.50;;;;;;;;;;5041475;28;20670;-67
2022/05/08 06:39:15;;;;;;;0.60;0.60;;;;;;;;;;5041308;28;21030;-67
2022/05/08 06:41:41;;;;;;;1.73;0.80;;;;;;;;;;5041342;28;20739;-67
2022/05/08 06:44:07;;;;;;;0.70;0.70;;;;;;;;;;5040972;28;20440;-67
2022/05/08 06:46:35;;;;;;;0.80;0.80;;;;;;;;;;5041070;28;20422;-67
2022/05/08 06:49:02;;;;;;;1.27;0.97;;;;;;;;;;5040894;28;20484;-67
2022/05/08 06:51:28;;;;;;;0.70;0.70;;;;;;;;;;5040656;28;20500;-67
2022/05/08 06:53:54;;;;;;;1.23;1.13;;;;;;;;;;5040795;28;20480;-67
2022/05/08 06:56:20;;;;;;;0.70;0.70;;;;;;;;;;5040372;28;20428;-67
2022/05/08 07:01:38;;;;;;;0.97;0.80;;;;;;;;;;5040654;28;20793;-67
2022/05/08 07:04:06;;;;;;;0.70;0.70;;;22.50;56.70;;;;;;5040259;28;20867;-67
2022/05/08 07:06:32;;;;;;;1.80;0.70;;;;;;;;;;5040202;28;20990;-67
2022/05/08 07:08:58;;;;;;;0.80;0.63;;;22.40;55.40;;;;;;5040619;28;20432;-67
2022/05/08 07:11:25;;;;;;;0.70;0.70;;;;;;;;;;5040289;28;20402;-67
2022/05/08 07:13:50;;;;;;;0.60;0.60;;;;;;;;;;5040506;28;20360;-67
2022/05/08 07:16:16;;;;;;;0.70;0.70;;;;;;;;;;5039282;28;20416;-67
2022/05/08 07:18:42;;;;;;;0.67;0.67;;;;;;;;;;5040124;28;20336;-67
2022/05/08 07:21:08;;;;;;;1.00;1.00;;;;;;;;;;5040063;28;20418;-67
2022/05/08 07:23:34;;;;;;;0.88;0.88;;;;;;;;;;5040180;28;20413;-67
2022/05/08 07:26:00;;;;;;;3.47;1.27;;;;;;;;;;5040085;28;20276;-67
2022/05/08 07:28:30;;;;;;;1.63;1.20;;;;;;;;;;5039736;28;20448;-67
2022/05/08 07:30:55;;;;;;;1.10;1.10;;;;;;;;;;5038899;28;20946;-67
2022/05/08 07:33:22;;;;;;;1.17;1.17;;;22.50;62.30;;;;;;5038880;28;20941;-67
2022/05/08 07:38:32;;;;;;;1.20;1.20;;;23.10;55.90;;;;;;5039702;28;20716;-67
2022/05/08 07:40:58;;;;;;;1.30;1.20;;;22.60;55.30;;;;;;5040164;28;20403;-67
2022/05/08 07:43:25;;;;;;;1.40;1.30;;;22.50;55.30;;;;;;5039732;28;20184;-67
2022/05/08 07:45:51;;;;;;;1.07;1.07;;;;;;;;;;5039706;28;20497;-67
2022/05/08 07:48:17;;;;;;;1.50;1.50;;;;;;;;;;5039784;28;20414;-67
2022/05/08 07:50:45;;;;;;;1.67;1.57;;;;;;;;;;5039426;28;20549;-67
2022/05/08 07:53:12;;;;;;;2.00;1.27;;;;;;;;;;5039089;28;20990;-67
2022/05/08 07:55:38;;;;;;;1.93;1.10;;;;;;;;;;5030006;28;20542;-67
2022/05/08 07:58:04;;;;;;;1.27;1.27;;;;;;;;;;5037636;28;20505;-67
2022/05/08 08:00:29;;;;;;;2.97;1.60;;;22.40;62.00;;;;;;5050636;28;20441;-67
2022/05/08 08:02:55;;;;;;;1.30;1.30;;;22.30;54.60;;;;;;5049727;28;20508;-67
2022/05/08 08:05:21;;;;;;;0.93;0.93;;;;;;;;;;5051075;28;20184;-67
2022/05/08 08:07:48;;;;;;;1.90;1.80;;;;;;;;;;5050703;28;20419;-67
2022/05/08 08:10:14;;;;;;;1.37;1.27;;;;;;;;;;5049913;28;20793;-67
2022/05/08 08:12:39;;;;;;;1.47;1.47;;;22.70;72.50;;;;;;5050549;28;20922;-67
2022/05/08 08:15:05;;;;;;;2.10;1.47;;;22.50;55.40;;;;;;5050853;28;20446;-67
2022/05/08 08:17:31;;;;;;;1.43;1.13;;;;;;;;;;5047191;28;20321;-67
2022/05/08 08:19:57;;;;;;;1.80;1.43;;;;;;;;;;5050797;28;20446;-67
2022/05/08 08:22:23;;;;;;;1.58;1.45;;;;;;;;;;5049984;28;20414;-67
2022/05/08 08:24:49;;;;;;;1.27;1.17;;;;;;;;;;5049802;28;20188;-67
2022/05/08 08:27:19;;;;;;;1.57;1.50;;;;;;;;;;5044159;28;20458;-67
2022/05/08 08:29:45;;;;;;;1.43;1.43;;;22.60;59.00;;;;;;5042708;28;20447;-67
2022/05/08 08:32:11;;;;;;;1.57;1.40;;;;;;;;;;5049525;28;20430;-67
2022/05/08 08:34:37;;;;;;;1.83;1.73;;;;;;;;;;5048866;28;20470;-67
2022/05/08 08:37:03;;;;;;;0.93;0.93;;;;;;;;;;5040729;28;20430;-67
2022/05/08 08:39:29;;;;;;;1.00;1.00;;;;;;;;;;5043798;28;20454;-67
2022/05/08 08:42:11;;;;;;;1.50;1.50;;;22.70;69.10;;;;;;5048608;28;20426;-67
2022/05/08 08:50:07;;;;;;;1.07;1.07;;;;;;;;;;5049817;28;20434;-67
2022/05/08 08:52:33;;;;;;;1.63;1.60;;;;;;;;;;5045407;28;20418;-67
2022/05/08 08:54:59;;;;;;;1.40;1.30;;;;;;;;;;5048872;28;20730;-67
2022/05/08 08:57:25;;;;;;;2.10;1.40;;;;;;;;;;5050029;28;20573;-67
2022/05/08 08:59:51;;;;;;;1.80;1.70;;;;;;;;;;5048685;28;20904;-67
2022/05/08 09:02:18;;;;;;;1.07;1.07;;;22.50;55.10;;;;;;5049939;28;20751;-67
2022/05/08 09:04:51;;;;;;;1.93;1.20;;;23.00;58.40;;;;;;5050117;28;20961;-67
2022/05/08 09:07:42;;;;;;;1.23;1.23;;;22.50;53.70;;;;;;5049426;28;20486;-67
2022/05/08 09:10:18;;;;;;;1.27;1.27;;;22.50;53.80;;;;;;5049815;28;20202;-67
2022/05/08 09:13:03;;;;;;;1.13;1.13;;;22.60;69.50;;;;;;5049638;28;20430;-67
2022/05/08 09:15:29;;;;;;;1.13;1.13;;;;;;;;;;5049879;28;20863;-67
2022/05/08 09:18:01;;;;;;;1.27;1.10;;;22.70;60.40;;;;;;5049806;28;20426;-67
2022/05/08 09:20:27;;;;;;;1.60;1.50;;;;;;;;;;5049996;28;20517;-67
2022/05/08 09:23:13;;;;;;;1.33;1.20;;;22.90;54.50;;;;;;5049405;28;20521;-67
2022/05/08 09:25:59;;;;;;;1.40;1.30;;;22.70;54.60;;;;;;5045237;28;20203;-67
2022/05/08 09:28:30;;;;;;;1.33;1.33;;;22.50;56.70;;;;;;5049371;28;21004;-67
2022/05/08 09:30:57;;;;;;;1.33;1.23;;;23.20;64.50;;;;;;5049789;28;20425;-67
2022/05/08 09:33:34;;;;;;;1.30;1.30;;;22.40;55.50;;;;;;5049328;28;20545;-67
2022/05/08 09:36:02;;;;;;;1.23;1.23;;;22.60;56.80;;;;;;5049302;28;20402;-67
2022/05/08 09:38:50;;;;;;;1.83;1.30;;;22.50;55.00;;;;;;5048859;28;20422;-67
2022/05/08 09:41:27;;;;;;;1.23;1.13;;;22.50;56.90;;;;;;5049347;28;20402;-67
2022/05/08 09:43:54;;;;;;;2.77;1.30;;;22.60;56.90;;;;;;5049305;28;20451;-67
2022/05/08 09:46:21;;;;;;;2.90;1.30;;;22.30;58.30;;;;;;5049040;28;20403;-67
2022/05/08 09:48:47;;;;;;;2.83;1.30;;;;;;;;;;5048713;28;20964;-67
2022/05/08 09:51:15;;;;;;;1.40;1.00;;;22.70;60.60;;;;;;5047494;28;20422;-67
2022/05/08 09:53:43;;;;;;;2.50;1.23;;;22.60;57.10;;;;;;5048804;28;20992;-67
2022/05/08 09:56:13;;;;;;;1.63;1.37;;;22.30;58.10;;;;;;5048899;28;20430;-67
2022/05/08 09:58:43;;;;;;;1.73;1.30;;;22.60;56.70;;;;;;5049056;28;20438;-67
2022/05/08 10:01:09;;;;;;;1.83;1.10;;;22.40;61.60;;;;;;5048808;28;20933;-67
2022/05/08 10:03:35;;;;;;;1.50;1.50;;;22.00;55.80;;;;;;5048047;28;20938;-67
2022/05/08 10:06:01;;;;;;;1.47;1.37;;;;;;;;;;5049002;28;20734;-67
2022/05/08 10:08:38;;;;;;;1.50;1.50;;;22.50;57.00;;;;;;5048973;28;20398;-67
2022/05/08 10:14:05;;;;;;;1.57;1.47;;;22.60;57.20;;;;;;5049141;28;20464;-66
2022/05/08 10:16:48;;;;;;;1.20;1.10;;;22.60;66.70;;;;;;5048907;28;21076;-67
2022/05/08 10:21:59;;;;;;;1.50;1.40;;;22.50;55.30;;;;;;5048981;28;20441;-67
2022/05/08 10:24:40;;;;;;;1.50;1.40;;;22.60;55.20;;;;;;5048314;28;20757;-66
2022/05/08 10:27:18;;;;;;;1.53;1.53;;;22.70;57.50;;;;;;5046973;28;20479;-67
2022/05/08 10:30:03;;;;;;;2.40;1.70;;;22.70;67.60;;;;;;5048908;28;20557;-66
2022/05/08 10:32:31;;;;;;;1.63;1.30;;;22.80;73.60;;;;;;5049342;28;20579;-67
2022/05/08 10:35:10;;;;;;;1.40;1.40;;;22.60;55.50;;;;;;5048447;28;20466;-67
2022/05/08 10:37:40;;;;;;;1.70;1.60;;;22.70;81.90;;;;;;5048598;28;20491;-68
2022/05/08 10:40:24;;;;;;;1.77;1.60;;;22.40;55.20;;;;;;5048712;28;20430;-67
2022/05/08 10:42:50;;;;;;;4.60;1.77;;;22.60;56.40;;;;;;5048650;28;20402;-68
2022/05/08 10:45:34;;;;;;;1.40;1.30;;;22.60;55.40;;;;;;5041391;28;20794;-68
2022/05/08 10:48:05;;;;;;;1.73;1.63;;;22.80;59.50;;;;;;5043234;28;20422;-68
2022/05/08 10:50:31;;;;;;;1.57;1.47;;;;;;;;;;5044426;28;20864;-68
2022/05/08 10:52:58;;;;;;;1.50;1.40;;;;;;;;;;5039892;28;20595;-66
2022/05/08 10:55:25;;;;;;;1.77;1.70;;;22.90;56.10;;;;;;5042958;28;20447;-66
2022/05/08 10:57:52;;;;;;;1.80;1.70;;;22.40;74.80;;;;;;5047806;28;20513;-66
2022/05/08 11:00:18;;;;;;;2.00;1.60;;;;;;;;;;5044410;28;21043;-66
2022/05/08 11:02:52;;;;;;;2.90;1.63;;;22.70;55.10;;;;;;5048943;28;20503;-66
2022/05/08 11:05:20;;;;;;;1.63;1.53;;;22.40;77.80;;;;;;5048923;28;20433;-67
2022/05/08 11:07:49;;;;;;;2.00;1.50;;;22.70;55.00;;;;;;5041602;28;20572;-68
2022/05/08 11:10:16;;;;;;;1.60;1.60;;;22.70;56.80;;;;;;5050084;28;20503;-67
2022/05/08 11:13:10;;;;;;;1.60;1.60;;;22.50;57.30;;;;;;5041249;28;20427;-68
2022/05/08 11:15:36;;;;;;;1.80;1.70;;;;;;;;;;5037214;28;21024;-67
2022/05/08 11:18:21;;;;;;;1.63;1.53;;;22.50;54.70;;;;;;5038487;28;20451;-67
2022/05/08 11:20:51;;;;;;;1.40;1.30;;;22.70;54.80;;;;;;5035209;28;20196;-68
2022/05/08 11:23:22;;;;;;;1.67;1.67;;;22.70;56.60;;;;;;5038134;28;20433;-67
2022/05/08 11:25:53;;;;;;;3.43;1.70;;;22.70;56.60;;;;;;5040145;28;20495;-67
2022/05/08 11:28:21;;;;;;;2.03;1.93;;;22.70;56.40;;;;;;5047830;28;20860;-68
2022/05/08 11:30:48;;;;;;;1.83;1.70;;;22.50;68.60;;;;;;5047372;28;20438;-67
2022/05/08 11:36:04;;;;;;;1.60;1.60;;;22.70;73.80;;;;;;5048077;28;20271;-67
2022/05/08 11:38:42;;;;;;;1.83;1.83;;;22.70;54.40;;;;;;5047915;28;20431;-68
2022/05/08 11:41:13;;;;;;;2.50;1.90;;;22.70;54.30;;;;;;5048021;28;20403;-68
2022/05/08 11:43:41;;;;;;;2.30;2.20;;;22.80;56.40;;;;;;5050501;28;20430;-68
2022/05/08 11:46:08;;;;;;;1.97;1.87;;;;;;;;;;5050901;28;20430;-68
2022/05/08 11:48:40;;;;;;;2.00;1.90;;;;;;;;;;5051354;28;20403;-68
2022/05/08 11:51:07;;;;;;;1.73;1.63;;;22.80;56.10;;;;;;5042522;28;20466;-68
2022/05/08 11:53:49;;;;;;;1.90;1.73;;;22.80;54.10;;;;;;5050473;28;20461;-68
2022/05/08 11:56:24;;;;;;;1.70;1.70;;;23.00;55.70;;;;;;5051027;28;20746;-67
2022/05/08 11:58:51;;;;;;;2.23;2.13;;;23.70;56.20;;;;;;5051077;28;20434;-67
2022/05/08 12:01:25;;;;;;;1.60;1.60;;;22.80;53.70;;;;;;5050460;28;20505;-68
2022/05/08 12:03:52;;;;;;;1.90;1.80;;;;;;;;;;5039262;28;20445;-67
2022/05/08 12:06:18;;;;;;;2.07;2.07;;;22.20;61.70;;;;;;5039577;28;20832;-66
2022/05/08 12:08:43;;;;;;;1.97;1.87;;;23.10;80.70;;;;;;5046442;28;20453;-66
2022/05/08 12:11:28;;;;;;;1.87;1.87;;;22.60;65.10;;;;;;5047414;28;20415;-65
2022/05/08 12:14:02;;;;;;;1.67;1.67;;;22.90;53.40;;;;;;5048062;28;20491;-66
2022/05/08 12:16:28;;;;;;;1.80;1.80;;;;;;;;;;5044770;28;20180;-67
2022/05/08 12:19:18;;;;;;;2.47;2.37;;;23.10;54.90;;;;;;5045008;28;20540;-68
2022/05/08 12:21:48;;;;;;;1.50;1.50;;;22.60;62.30;;;;;;5046544;28;20423;-68
2022/05/08 12:24:17;;;;;;;1.90;1.80;;;22.90;60.90;;;;;;5041342;28;20480;-68
2022/05/08 12:26:43;;;;;;;3.23;1.87;;;22.90;55.00;;;;;;5041457;28;20187;-68
2022/05/08 12:29:23;;;;;;;2.83;2.00;;;22.70;53.20;;;;;;5041689;28;20455;-68
2022/05/08 12:31:51;;;;;;;1.40;1.30;;;22.80;54.50;;;;;;5041140;28;20504;-68
2022/05/08 12:34:18;;;;;;;1.80;1.80;;;22.90;54.40;;;;;;5042586;28;20811;-68
2022/05/08 12:36:44;;;;;;;2.20;2.10;;;23.00;75.60;;;;;;5043984;28;20430;-68
2022/05/08 12:39:09;;;;;;;2.00;1.80;;;23.00;63.60;;;;;;5043890;28;20462;-67
2022/05/08 12:41:37;;;;;;;1.93;1.83;;;23.00;54.40;;;;;;5046200;28;20314;-68
2022/05/08 12:44:03;;;;;;;2.03;1.70;;;;;;;;;;5047304;28;20203;-67
2022/05/08 12:46:29;;;;;;;1.70;1.70;;;;;;;;;;5044633;28;20419;-67
2022/05/08 12:49:02;;;;;;;1.98;1.42;;;;;;;;;;5046677;28;20448;-68
2022/05/08 12:51:28;;;;;;;1.73;1.60;;;;;;;;;;5047245;28;20196;-68
2022/05/08 12:53:54;;;;;;;1.43;1.33;;;;;;;;;;5048911;28;20547;-68
2022/05/08 12:56:20;;;;;;;1.60;1.50;;;;;;;;;;5046514;28;20487;-66
2022/05/08 13:01:30;;;;;;;1.43;1.30;;;;;;;;;;5049695;28;20930;-67
2022/05/08 13:03:56;;;;;;;1.63;1.53;;;;;;;;;;5049621;28;20513;-66
2022/05/08 13:06:22;;;;;;;1.90;1.80;;;;;;;;;;5050015;28;21000;-67
2022/05/08 13:08:48;;;;;;;1.67;1.57;;;;;;;;;;5046919;28;20287;-66
2022/05/08 13:11:14;;;;;;;1.10;1.10;;;;;;;;;;5049164;28;20425;-66
2022/05/08 13:13:41;;;;;;;2.53;1.70;;;;;;;;;;5049490;28;20568;-66
2022/05/08 13:16:11;;;;;;;1.50;1.50;;;;;;;;;;5038368;28;20466;-66
2022/05/08 13:18:37;;;;;;;1.87;1.77;;;;;;;;;;5037418;28;20439;-66
2022/05/08 13:21:03;;;;;;;2.20;2.10;;;;;;;;;;5041629;28;20791;-67
2022/05/08 13:23:29;;;;;;;1.87;1.77;;;;;;;;;;5047888;28;20436;-67
2022/05/08 13:25:55;;;;;;;1.75;1.60;;;;;;;;;;5048542;28;20423;-67
2022/05/08 13:28:21;;;;;;;2.53;2.43;;;;;;;;;;5047654;28;20177;-67
2022/05/08 13:30:47;;;;;;;2.40;2.30;;;;;;;;;;5049423;28;20586;-67
2022/05/08 13:33:13;;;;;;;3.00;2.83;;;;;;;;;;5049375;28;20457;-67
2022/05/08 13:35:38;;;;;;;2.90;2.60;;;;;;;;;;5048965;28;20874;-67
2022/05/08 13:38:04;;;;;;;3.50;3.20;;;;;;;;;;5049241;28;20434;-67
2022/05/08 13:40:30;;;;;;;4.13;3.70;;;23.30;67.90;;;;;;5047173;28;21144;-67
2022/05/08 13:42:57;;;;;;;4.65;4.25;;;23.30;73.40;;;;;;5043962;28;20430;-66
2022/05/08 13:45:23;;;;;;;6.07;4.63;;;;;;;;;;5038636;28;20251;-67
2022/05/08 13:47:49;;;;;;;5.27;4.77;;;23.40;52.10;;;;;;5043217;28;20427;-66
2022/05/08 13:50:15;;;;;;;5.53;5.03;;;;;;;;;;5044726;28;20455;-67
2022/05/08 13:52:43;;;;;;;5.13;4.40;;;;;;;;;;5044232;28;20951;-66
2022/05/08 13:55:15;;;;;;;5.10;4.30;;;;;;;;;;5046544;28;20449;-66
2022/05/08 13:57:42;;;;;;;6.50;5.10;;;;;;;;;;5043284;28;20422;-67
2022/05/08 14:00:13;;;;;;;4.50;4.10;;;24.20;50.90;;;;;;5040370;28;20552;-67
2022/05/08 14:02:39;;;;;;;3.30;3.00;;;;;;;;;;5043521;28;20442;-67
2022/05/08 14:05:05;;;;;;;4.83;4.37;;;;;;;;;;5042084;28;20524;-67
2022/05/08 14:07:31;;;;;;;4.33;3.70;;;;;;;;;;5046458;28;20454;-66
2022/05/08 14:09:57;;;;;;;4.07;3.10;;;;;;;;;;5048625;28;20474;-67
2022/05/08 14:12:23;;;;;;;3.47;3.27;;;;;;;;;;5041102;28;20980;-67
2022/05/08 14:14:49;;;;;;;3.50;3.20;;;;;;;;;;5048462;28;20483;-67
2022/05/08 14:17:15;;;;;;;2.83;2.63;;;;;;;;;;5048500;28;20522;-67
2022/05/08 14:19:41;;;;;;;3.90;2.87;;;;;;;;;;5047181;28;20948;-67
2022/05/08 14:22:06;;;;;;;2.80;2.60;;;23.50;54.30;;;;;;5047298;28;20191;-67
2022/05/08 14:24:33;;;;;;;2.40;2.30;;;23.20;61.80;;;;;;5048078;28;20267;-67
2022/05/08 14:27:00;;;;;;;2.17;2.07;;;;;;;;;;5048506;28;20180;-67
2022/05/08 14:29:26;;;;;;;2.13;2.03;;;;;;;;;;5046647;28;20445;-67